Time;durP1;ratioP1;P1;durP2;ratioP2;P2;SDS_P1;SDS_P2;PMS_P1;PMS_P2;Temp;Humidity;BMP_temperature;BMP_pressure;BME280_temperature;BME280_humidity;BME280_pressure;Samples;Min_cycle;Max_cycle;Signal;HPM_P1;HPM_P2
2021/09/26 00:02:44;;;;;;;10.68;7.47;;;;;;;15.72;62.66;99850.09;10438393;28;20150;-63
2021/09/26 00:07:46;;;;;;;11.68;8.02;;;;;;;15.69;62.99;99845.09;10438306;28;20425;-64
2021/09/26 00:12:48;;;;;;;13.25;7.80;;;;;;;15.82;62.76;99840.47;10437911;28;20204;-64
2021/09/26 00:17:50;;;;;;;10.02;7.45;;;;;;;15.88;62.18;99845.22;10437821;28;20559;-64
2021/09/26 00:22:53;;;;;;;9.88;7.22;;;;;;;15.80;62.43;99828.38;10437491;28;20053;-64
2021/09/26 00:27:55;;;;;;;10.48;6.65;;;;;;;15.86;62.48;99839.25;10437567;28;20505;-64
2021/09/26 00:32:56;;;;;;;11.32;7.30;;;;;;;15.88;62.49;99834.69;10437088;28;20055;-64
2021/09/26 00:37:58;;;;;;;14.25;7.93;;;;;;;15.81;62.47;99843.25;10437410;28;20059;-64
2021/09/26 00:43:00;;;;;;;12.63;7.20;;;;;;;15.81;62.85;99838.81;10437045;28;20045;-63
2021/09/26 00:48:02;;;;;;;9.25;7.07;;;;;;;15.76;62.54;99833.06;10436515;28;20052;-64
2021/09/26 00:53:04;;;;;;;11.20;7.57;;;;;;;15.80;62.59;99836.28;10435314;28;20059;-64
2021/09/26 00:58:05;;;;;;;11.88;8.38;;;;;;;15.76;62.90;99830.44;10436511;28;20088;-64
2021/09/26 01:03:07;;;;;;;13.25;8.32;;;;;;;15.60;63.08;99831.81;10436629;28;20132;-64
2021/09/26 01:08:34;;;;;;;9.45;7.22;;;;;;;15.56;63.33;99825.97;10435772;28;20428;-64
2021/09/26 01:13:45;;;;;;;9.73;7.05;;;;;;;15.50;63.43;99829.09;10435799;28;20059;-64
2021/09/26 01:18:57;;;;;;;9.50;7.18;;;;;;;15.40;63.17;99823.72;10435291;28;20052;-64
2021/09/26 01:24:29;;;;;;;10.93;7.05;;;;;;;15.27;63.33;99830.09;10435323;28;20051;-64
2021/09/26 01:29:43;;;;;;;11.50;7.72;;;;;;;15.22;63.69;99835.75;10435082;28;20049;-63
2021/09/26 01:34:49;;;;;;;10.50;7.30;;;;;;;15.07;63.31;99828.22;10433843;28;20103;-64
2021/09/26 01:40:13;;;;;;;10.73;7.80;;;;;;;14.91;63.81;99830.38;10434820;28;20055;-64
2021/09/26 01:45:32;;;;;;;12.27;8.55;;;;;;;14.84;63.99;99835.28;10434756;28;20055;-64
2021/09/26 01:50:36;;;;;;;9.80;6.75;;;;;;;14.81;63.95;99834.72;10433100;28;20374;-64
2021/09/26 01:55:40;;;;;;;8.77;6.93;;;;;;;14.80;64.28;99835.69;10434019;28;20323;-64
2021/09/26 02:00:42;;;;;;;8.25;6.57;;;;;;;14.76;64.10;99850.06;10432538;28;20136;-64
2021/09/26 02:05:45;;;;;;;8.68;6.65;;;;;;;14.73;64.14;99851.13;10433817;28;20044;-64
2021/09/26 02:10:48;;;;;;;7.35;6.60;;;;;;;14.69;64.04;99846.19;10433564;28;20705;-64
2021/09/26 02:15:51;;;;;;;10.40;7.20;;;;;;;14.75;64.38;99845.72;10434012;28;20175;-64
2021/09/26 02:20:54;;;;;;;15.50;10.48;;;;;;;14.70;64.46;99842.59;10433544;28;20048;-64
2021/09/26 02:25:56;;;;;;;12.13;8.45;;;;;;;14.68;64.25;99828.72;10433575;28;20048;-64
2021/09/26 02:30:58;;;;;;;14.85;8.55;;;;;;;14.66;64.43;99831.47;10433149;28;20412;-64
2021/09/26 02:36:00;;;;;;;11.18;8.00;;;;;;;14.73;64.23;99845.84;10433513;28;20099;-64
2021/09/26 02:41:11;;;;;;;13.23;8.38;;;;;;;14.79;64.35;99836.63;10433159;28;20158;-64
2021/09/26 02:46:20;;;;;;;12.40;7.32;;;;;;;14.73;64.38;99837.09;10435859;28;20542;-63
2021/09/26 02:51:23;;;;;;;10.60;7.70;;;;;;;14.49;64.28;99832.78;10440831;28;20040;-64
2021/09/26 02:56:26;;;;;;;12.60;8.07;;;;;;;14.35;64.90;99832.16;10441362;28;20142;-64
2021/09/26 03:01:27;;;;;;;9.77;6.65;;;;;;;14.33;64.65;99834.06;10440704;28;20553;-64
2021/09/26 03:06:30;;;;;;;12.60;7.63;;;;;;;14.32;64.53;99827.13;10439320;28;20524;-64
2021/09/26 03:11:31;;;;;;;10.90;7.28;;;;;;;14.25;64.69;99824.13;10440169;28;20057;-63
2021/09/26 03:16:33;;;;;;;8.57;7.18;;;;;;;14.11;64.86;99837.47;10440049;28;20049;-64
2021/09/26 03:21:35;;;;;;;10.15;7.25;;;;;;;14.06;64.67;99826.50;10439879;28;20493;-64
2021/09/26 03:26:36;;;;;;;10.75;7.15;;;;;;;14.11;65.01;99828.75;10439990;28;20055;-64
2021/09/26 03:31:38;;;;;;;10.68;6.93;;;;;;;14.03;64.97;99825.84;10439473;28;20044;-63
2021/09/26 03:36:40;;;;;;;9.57;6.88;;;;;;;13.96;64.48;99833.41;10439175;28;20485;-63
2021/09/26 03:41:42;;;;;;;10.65;7.50;;;;;;;13.92;64.58;99823.22;10439166;28;20524;-64
2021/09/26 03:46:43;;;;;;;12.85;7.30;;;;;;;13.88;64.75;99825.22;10439287;28;20300;-64
2021/09/26 03:51:48;;;;;;;9.45;6.60;;;;;;;13.86;64.81;99816.59;10438693;28;20088;-64
2021/09/26 03:56:49;;;;;;;10.80;7.75;;;;;;;13.85;65.03;99806.22;10438335;28;20059;-64
2021/09/26 04:01:51;;;;;;;12.80;7.50;;;;;;;13.81;64.81;99808.25;10438499;28;20056;-63
2021/09/26 04:06:53;;;;;;;17.48;7.45;;;;;;;13.78;64.73;99813.72;10438616;28;20288;-64
2021/09/26 04:11:55;;;;;;;17.25;9.15;;;;;;;13.68;64.71;99815.34;10437841;28;20064;-64
2021/09/26 04:16:57;;;;;;;13.55;7.70;;;;;;;13.64;65.04;99821.78;10437840;28;20049;-64
2021/09/26 04:21:58;;;;;;;9.77;6.97;;;;;;;13.60;64.96;99820.34;10437778;28;20075;-64
2021/09/26 04:27:00;;;;;;;11.35;7.78;;;;;;;13.58;64.86;99819.63;10437587;28;20045;-63
2021/09/26 04:32:02;;;;;;;8.35;6.50;;;;;;;13.52;64.88;99826.16;10437592;28;20292;-63
2021/09/26 04:37:04;;;;;;;9.60;6.68;;;;;;;13.50;64.80;99833.31;10437003;28;20045;-64
2021/09/26 04:42:08;;;;;;;10.15;6.88;;;;;;;13.50;65.03;99830.69;10437022;28;20056;-64
2021/09/26 04:47:11;;;;;;;10.20;7.65;;;;;;;13.36;64.80;99822.09;10437529;28;20497;-63
2021/09/26 04:52:12;;;;;;;9.52;7.45;;;;;;;13.29;64.94;99826.16;10436266;28;20051;-64
2021/09/26 04:57:14;;;;;;;14.15;9.60;;;;;;;13.20;64.95;99830.28;10436539;28;20049;-63
2021/09/26 05:02:16;;;;;;;8.60;7.10;;;;;;;13.13;65.28;99829.03;10436163;28;20057;-64
2021/09/26 05:07:20;;;;;;;13.15;8.18;;;;;;;13.15;65.26;99832.38;10434805;28;20037;-64
2021/09/26 05:12:22;;;;;;;14.00;8.60;;;;;;;13.08;65.30;99831.16;10434547;28;20081;-64
2021/09/26 05:17:23;;;;;;;9.60;7.70;;;;;;;13.07;65.30;99833.91;10435353;28;20053;-64
2021/09/26 05:22:26;;;;;;;9.85;6.82;;;;;;;13.08;65.21;99828.53;10435338;28;20055;-64
2021/09/26 05:27:28;;;;;;;8.65;6.47;;;;;;;13.00;65.10;99828.25;10435044;28;20400;-64
2021/09/26 05:32:29;;;;;;;11.90;7.55;;;;;;;13.05;65.19;99828.72;10434738;28;20242;-64
2021/09/26 05:37:31;;;;;;;14.40;8.02;;;;;;;13.12;65.17;99837.00;10434860;28;20052;-63
2021/09/26 05:42:33;;;;;;;10.52;7.45;;;;;;;13.16;64.97;99854.22;10434564;28;20055;-63
2021/09/26 05:47:35;;;;;;;8.77;7.07;;;;;;;13.20;64.89;99866.19;10434560;28;20052;-64
2021/09/26 05:52:37;;;;;;;8.20;6.38;;;;;;;13.30;64.67;99872.47;10434214;28;20493;-64
2021/09/26 05:57:38;;;;;;;16.45;8.05;;;;;;;13.38;64.50;99864.88;10434976;28;20041;-64
2021/09/26 06:02:40;;;;;;;123.90;10.20;;;;;;;13.24;64.70;99865.03;10434731;28;20059;-64
2021/09/26 06:07:42;;;;;;;9.43;7.25;;;;;;;13.31;64.89;99856.59;10434132;28;20053;-64
2021/09/26 06:12:44;;;;;;;7.30;5.60;;;;;;;13.58;64.30;99856.41;10433954;28;20573;-64
2021/09/26 06:17:46;;;;;;;7.03;5.97;;;;;;;13.81;63.81;99858.19;10434496;28;20051;-65
2021/09/26 06:22:47;;;;;;;6.40;5.50;;;;;;;14.06;63.20;99867.72;10433661;28;20115;-65
2021/09/26 06:27:49;;;;;;;9.45;6.68;;;;;;;14.19;62.90;99864.03;10433766;28;20045;-65
2021/09/26 06:32:51;;;;;;;9.93;7.47;;;;;;;14.19;62.97;99869.31;10433598;28;20175;-65
2021/09/26 06:37:54;;;;;;;10.48;6.28;;;;;;;14.23;62.93;99891.78;10433375;28;20476;-65
2021/09/26 06:42:56;;;;;;;9.95;6.05;;;;;;;14.34;62.80;99897.09;10433303;28;20389;-65
2021/09/26 06:47:57;;;;;;;10.55;7.72;;;;;;;14.36;63.09;99908.34;10433080;28;20099;-65
2021/09/26 06:52:59;;;;;;;11.13;7.50;;;;;;;14.41;63.13;99900.91;10433233;28;20519;-65
2021/09/26 06:58:04;;;;;;;12.15;8.48;;;;;;;14.64;63.03;99898.34;10433098;28;20057;-65
2021/09/26 07:03:11;;;;;;;12.70;8.75;;;;;;;14.79;62.85;99894.56;10431296;28;20041;-65
2021/09/26 07:08:12;;;;;;;10.73;8.77;;;;;;;14.88;62.86;99889.41;10432563;28;20053;-65
2021/09/26 07:13:14;;;;;;;12.43;9.65;;;;;;;14.99;62.59;99885.94;10431722;28;20063;-65
2021/09/26 07:18:16;;;;;;;13.68;9.60;;;;;;;15.18;62.80;99881.75;10432608;28;20421;-65
2021/09/26 07:23:17;;;;;;;14.98;11.05;;;;;;;15.37;62.62;99892.47;10432596;28;20053;-65
2021/09/26 07:28:19;;;;;;;14.98;10.80;;;;;;;15.53;62.67;99907.91;10432416;28;20045;-65
2021/09/26 07:33:21;;;;;;;14.05;10.15;;;;;;;15.61;62.46;99923.13;10435036;28;20057;-65
2021/09/26 07:38:22;;;;;;;10.07;8.60;;;;;;;16.03;61.70;99899.38;10440071;28;20071;-64
2021/09/26 07:43:25;;;;;;;14.85;11.55;;;;;;;16.53;60.67;99905.72;10439729;28;20051;-64
2021/09/26 07:48:29;;;;;;;11.02;9.65;;;;;;;17.07;59.50;99900.16;10438350;28;20059;-64
2021/09/26 07:53:32;;;;;;;13.90;9.73;;;;;;;17.30;59.01;99898.16;10438879;28;20540;-64
2021/09/26 07:58:34;;;;;;;12.68;10.55;;;;;;;17.51;58.50;99894.47;10438790;28;20049;-64
2021/09/26 08:03:36;;;;;;;12.30;9.18;;;;;;;17.10;59.73;99889.31;10438776;28;20083;-64
2021/09/26 08:08:38;;;;;;;16.10;10.70;;;;;;;17.42;58.92;99887.38;10438300;28;20171;-64
2021/09/26 08:13:40;;;;;;;14.32;10.27;;;;;;;17.98;57.71;99886.69;10438053;28;20056;-64
2021/09/26 08:18:42;;;;;;;12.25;10.45;;;;;;;18.26;56.83;99896.50;10437969;28;20052;-64
2021/09/26 08:23:43;;;;;;;13.23;9.93;;;;;;;18.67;56.62;99907.53;10437962;28;20056;-64
2021/09/26 08:28:45;;;;;;;12.25;9.55;;;;;;;18.89;56.25;99914.31;10437190;28;20515;-64
2021/09/26 08:33:47;;;;;;;12.55;8.85;;;;;;;19.45;55.35;99920.38;10437449;28;20203;-64
2021/09/26 08:38:48;;;;;;;13.00;8.85;;;;;;;19.31;54.59;99925.34;10437211;28;20413;-64
2021/09/26 08:43:52;;;;;;;11.43;9.60;;;;;;;19.24;54.64;99918.94;10437051;28;20049;-64
2021/09/26 08:48:55;;;;;;;15.63;9.65;;;;;;;19.59;54.60;99921.69;10437436;28;20051;-65
2021/09/26 08:53:56;;;;;;;12.93;8.27;;;;;;;19.91;54.09;99915.94;10436309;28;20053;-64
2021/09/26 08:58:58;;;;;;;10.82;7.88;;;;;;;20.05;53.45;99910.09;10436726;28;20055;-64
2021/09/26 09:04:00;;;;;;;12.75;7.90;;;;;;;20.59;52.90;99917.84;10436390;28;20045;-65
2021/09/26 09:09:07;;;;;;;10.20;7.97;;;;;;;20.93;51.45;99931.16;10436111;28;20052;-65
2021/09/26 09:14:08;;;;;;;11.82;7.20;;;;;;;21.01;52.08;99929.41;10435840;28;20049;-64
2021/09/26 09:19:24;;;;;;;10.45;6.60;;;;;;;21.20;51.17;99932.81;10434391;28;20357;-65
2021/09/26 09:24:26;;;;;;;8.85;6.57;;;;;;;20.92;52.27;99926.88;10435808;28;20073;-64
2021/09/26 09:29:28;;;;;;;9.32;6.13;;;;;;;20.69;53.16;99925.72;10435185;28;20049;-64
2021/09/26 09:34:36;;;;;;;10.70;6.72;;;;;;;20.83;53.23;99920.66;10435287;28;20493;-65
2021/09/26 09:39:40;;;;;;;8.05;6.50;;;;;;;20.80;53.41;99915.66;10435116;28;20048;-65
2021/09/26 09:44:41;;;;;;;8.88;5.72;;;;;;;20.77;53.32;99923.09;10434488;28;20049;-64
2021/09/26 09:49:54;;;;;;;8.15;5.93;;;;;;;20.89;53.63;99906.72;10434599;28;20055;-64
2021/09/26 09:54:56;;;;;;;7.45;5.60;;;;;;;21.25;53.01;99914.56;10433834;28;20841;-64
2021/09/26 10:00:12;;;;;;;9.75;5.45;;;;;;;21.67;52.31;99910.91;10434196;28;20045;-64
2021/09/26 10:05:31;;;;;;;10.10;5.90;;;;;;;21.63;51.47;99900.75;10434534;28;20392;-64
2021/09/26 10:10:34;;;;;;;8.18;5.50;;;;;;;21.61;51.92;99898.25;10434307;28;20179;-65
2021/09/26 10:15:35;;;;;;;7.20;5.20;;;;;;;21.73;52.35;99914.75;10433804;28;20063;-64
2021/09/26 10:20:37;;;;;;;7.82;5.07;;;;;;;21.98;51.97;99928.94;10433832;28;20051;-64
2021/09/26 10:25:42;;;;;;;8.55;5.25;;;;;;;22.37;52.11;99938.00;10433716;28;20382;-64
2021/09/26 10:30:44;;;;;;;9.88;5.45;;;;;;;22.63;51.62;99947.47;10434162;28;20045;-65
2021/09/26 10:35:46;;;;;;;7.80;5.50;;;;;;;22.68;51.09;99937.13;10433842;28;20061;-64
2021/09/26 10:40:48;;;;;;;8.45;4.95;;;;;;;22.70;51.32;99934.28;10433382;28;20049;-64
2021/09/26 10:46:16;;;;;;;7.65;4.80;;;;;;;22.40;51.04;99921.66;10433346;28;20047;-65
2021/09/26 10:51:45;;;;;;;9.13;4.80;;;;;;;22.40;51.29;99919.84;10433456;28;20088;-64
2021/09/26 10:56:47;;;;;;;8.95;4.72;;;;;;;22.58;51.15;99920.47;10433192;28;20515;-64
2021/09/26 11:01:48;;;;;;;8.52;4.80;;;;;;;22.91;51.12;99912.44;10432729;28;20527;-64
2021/09/26 11:06:50;;;;;;;8.50;4.70;;;;;;;23.06;50.24;99913.41;10433315;28;20485;-64
2021/09/26 11:11:52;;;;;;;10.05;6.07;;;;;;;23.20;49.85;99924.22;10440382;28;20053;-64
2021/09/26 11:16:59;;;;;;;6.70;5.20;;;;;;;23.25;50.24;99927.16;10440180;28;20611;-64
2021/09/26 11:22:06;;;;;;;9.00;4.90;;;;;;;23.06;49.93;99932.94;10440305;28;20074;-64
2021/09/26 11:27:17;;;;;;;7.65;4.88;;;;;;;22.99;50.12;99945.25;10440495;28;20428;-64
2021/09/26 11:32:21;;;;;;;9.43;4.78;;;;;;;23.05;49.83;99941.91;10439283;28;20040;-64
2021/09/26 11:37:35;;;;;;;6.95;4.47;;;;;;;23.16;49.80;99938.91;10440017;28;20053;-64
2021/09/26 11:42:40;;;;;;;7.90;5.25;;;;;;;23.28;49.42;99942.00;10439466;28;20473;-64
2021/09/26 11:47:42;;;;;;;9.13;4.70;;;;;;;23.20;49.67;99945.56;10439430;28;20049;-64
2021/09/26 11:52:44;;;;;;;7.93;4.93;;;;;;;23.11;49.72;99951.06;10438843;28;20123;-64
2021/09/26 11:57:57;;;;;;;8.25;4.72;;;;;;;23.02;49.93;99939.59;10439824;28;20056;-64
2021/09/26 12:03:21;;;;;;;11.82;5.38;;;;;;;22.85;50.24;99945.13;10438858;28;20103;-64
2021/09/26 12:08:23;;;;;;;7.45;4.55;;;;;;;22.78;50.72;99936.97;10438631;28;20067;-63
2021/09/26 12:13:25;;;;;;;9.20;4.85;;;;;;;22.79;51.24;99933.31;10438090;28;20055;-64
2021/09/26 12:18:27;;;;;;;7.97;4.50;;;;;;;22.74;51.78;99929.50;10437562;28;20396;-64
2021/09/26 12:23:44;;;;;;;8.10;4.90;;;;;;;22.47;52.43;99939.50;10437799;28;20318;-64
2021/09/26 12:28:45;;;;;;;9.02;5.00;;;;;;;22.29;53.01;99936.13;10437313;28;20523;-64
2021/09/26 12:33:47;;;;;;;9.20;5.00;;;;;;;22.06;53.68;99937.81;10436381;28;20586;-64
2021/09/26 12:38:54;;;;;;;10.07;5.32;;;;;;;22.05;54.27;99922.81;10437679;28;20748;-64
2021/09/26 12:44:09;;;;;;;8.10;5.70;;;;;;;21.97;55.93;99924.59;10437043;28;20147;-63
2021/09/26 12:49:15;;;;;;;10.68;5.88;;;;;;;22.01;56.07;99918.78;10436758;28;20501;-63
2021/09/26 12:54:25;;;;;;;11.80;6.50;;;;;;;22.00;57.03;99917.13;10436958;28;20131;-63
2021/09/26 12:59:34;;;;;;;14.00;6.40;;;;;;;21.92;57.80;99922.44;10435136;28;20049;-64
2021/09/26 13:04:37;;;;;;;10.50;6.90;;;;;;;21.83;58.33;99918.09;10435029;28;20045;-64
2021/09/26 13:09:42;;;;;;;11.18;7.20;;;;;;;21.83;58.90;99920.75;10436232;28;20053;-64
2021/09/26 13:14:43;;;;;;;8.93;6.50;;;;;;;21.78;59.01;99928.41;10435996;28;20327;-64
2021/09/26 13:19:50;;;;;;;9.45;6.70;;;;;;;21.75;59.62;99928.72;10436136;28;20485;-64
2021/09/26 13:24:54;;;;;;;14.15;7.10;;;;;;;21.80;59.06;99913.91;10435824;28;20052;-64
2021/09/26 13:29:58;;;;;;;9.48;6.47;;;;;;;21.85;58.92;99916.09;10434856;28;20053;-64
2021/09/26 13:35:12;;;;;;;9.52;6.38;;;;;;;21.94;58.93;99907.13;10434333;28;20618;-63
2021/09/26 13:40:14;;;;;;;10.30;6.80;;;;;;;22.02;58.49;99911.63;10435723;28;20263;-63
2021/09/26 13:45:15;;;;;;;9.75;7.80;;;;;;;22.10;58.85;99919.66;10435025;28;20059;-63
2021/09/26 13:50:18;;;;;;;10.82;7.18;;;;;;;22.08;59.51;99917.16;10434813;28;20049;-63
2021/09/26 13:55:20;;;;;;;10.38;6.80;;;;;;;22.10;59.27;99919.66;10434484;28;20119;-63
2021/09/26 14:00:21;;;;;;;9.77;6.65;;;;;;;22.11;59.26;99924.81;10433391;28;20053;-64
2021/09/26 14:05:24;;;;;;;7.30;6.40;;;;;;;22.03;59.03;99921.25;10434241;28;20131;-64
2021/09/26 14:10:26;;;;;;;9.00;6.30;;;;;;;21.98;58.84;99927.13;10434011;28;20099;-64
2021/09/26 14:15:28;;;;;;;12.30;7.13;;;;;;;21.77;59.01;99929.38;10434242;28;20171;-64
2021/09/26 14:20:33;;;;;;;11.43;7.13;;;;;;;21.60;59.58;99925.00;10434138;28;20044;-64
2021/09/26 14:25:36;;;;;;;9.82;7.40;;;;;;;21.50;60.35;99925.16;10434193;28;20049;-64
2021/09/26 14:30:40;;;;;;;13.13;7.00;;;;;;;21.44;60.38;99927.63;10433335;28;20059;-64
2021/09/26 14:35:41;;;;;;;9.45;6.90;;;;;;;21.33;60.17;99919.94;10433478;28;20059;-65
2021/09/26 14:40:43;;;;;;;11.23;7.20;;;;;;;21.34;60.22;99901.16;10434020;28;20048;-63
2021/09/26 14:45:45;;;;;;;10.23;6.72;;;;;;;21.29;59.84;99900.78;10441820;28;20165;-63
2021/09/26 14:50:47;;;;;;;9.27;6.93;;;;;;;21.36;60.07;99891.19;10441703;28;20211;-64
2021/09/26 14:55:49;;;;;;;11.80;8.18;;;;;;;21.45;60.43;99890.22;10441950;28;20063;-63
2021/09/26 15:00:54;;;;;;;12.50;8.18;;;;;;;21.39;60.11;99895.34;10441292;28;20057;-63
2021/09/26 15:05:56;;;;;;;9.88;8.18;;;;;;;21.27;60.73;99886.81;10441070;28;20136;-63
2021/09/26 15:10:57;;;;;;;9.15;7.40;;;;;;;21.17;61.22;99875.44;10440562;28;20780;-63
2021/09/26 15:16:00;;;;;;;9.93;7.82;;;;;;;21.14;61.17;99872.28;10440851;28;20049;-63
2021/09/26 15:21:04;;;;;;;12.85;8.40;;;;;;;21.03;61.45;99878.72;10440342;28;20051;-63
2021/09/26 15:26:07;;;;;;;11.40;7.68;;;;;;;20.92;61.55;99874.53;10440382;28;20103;-64
2021/09/26 15:31:09;;;;;;;11.40;7.93;;;;;;;20.96;61.20;99867.91;10439881;28;20139;-64
2021/09/26 15:36:10;;;;;;;12.38;8.32;;;;;;;21.01;61.17;99862.91;10440198;28;20059;-64
2021/09/26 15:41:13;;;;;;;9.20;8.00;;;;;;;21.02;61.63;99887.69;10440019;28;20049;-64
2021/09/26 15:46:15;;;;;;;12.43;8.40;;;;;;;20.90;62.42;99887.16;10440311;28;20063;-64
2021/09/26 15:51:18;;;;;;;9.98;8.15;;;;;;;20.89;62.44;99887.28;10439689;28;20731;-64
2021/09/26 15:56:20;;;;;;;10.20;8.18;;;;;;;20.73;63.52;99885.38;10437959;28;20049;-64
2021/09/26 16:01:22;;;;;;;10.60;7.40;;;;;;;20.59;63.18;99893.09;10439438;28;20400;-64
2021/09/26 16:06:25;;;;;;;10.07;7.32;;;;;;;20.39;63.42;99895.09;10438821;28;20071;-64
2021/09/26 16:11:27;;;;;;;9.57;7.88;;;;;;;20.37;63.30;99899.72;10438208;28;20390;-64
2021/09/26 16:16:30;;;;;;;11.95;8.30;;;;;;;20.31;63.29;99907.47;10438593;28;20415;-66
2021/09/26 16:21:32;;;;;;;12.68;10.18;;;;;;;20.27;63.63;99898.97;10420428;28;20053;-64
2021/09/26 16:26:34;;;;;;;15.13;9.57;;;;;;;20.16;63.83;99900.06;10438132;28;20159;-64
2021/09/26 16:31:36;;;;;;;12.57;9.85;;;;;;;20.12;64.08;99908.47;10437757;28;20045;-63
2021/09/26 16:36:37;;;;;;;13.73;8.80;;;;;;;19.98;64.16;99901.88;10437411;28;20049;-64
2021/09/26 16:41:39;;;;;;;11.82;8.88;;;;;;;19.87;64.21;99902.09;10437347;28;20044;-64
2021/09/26 16:46:42;;;;;;;12.40;9.38;;;;;;;19.81;64.45;99899.19;10437091;28;20124;-64
2021/09/26 16:51:45;;;;;;;10.48;7.60;;;;;;;19.80;64.22;99900.19;10437188;28;20048;-63
2021/09/26 16:56:47;;;;;;;10.75;8.20;;;;;;;19.74;64.01;99903.44;10436267;28;20099;-64
2021/09/26 17:01:48;;;;;;;14.70;9.75;;;;;;;19.69;64.52;99913.66;10436831;28;20071;-63
2021/09/26 17:06:50;;;;;;;11.38;7.90;;;;;;;19.62;64.66;99902.84;10436341;28;20127;-63
2021/09/26 17:11:53;;;;;;;14.68;10.52;;;;;;;19.54;65.01;99923.13;10435859;28;20136;-63
2021/09/26 17:16:54;;;;;;;14.02;11.07;;;;;;;19.48;65.05;99921.91;10435890;28;20087;-63
2021/09/26 17:21:56;;;;;;;13.60;11.18;;;;;;;19.38;65.47;99935.19;10435788;28;20053;-66
2021/09/26 17:26:58;;;;;;;16.48;10.98;;;;;;;19.24;65.71;99927.72;10435087;28;20412;-63
2021/09/26 17:31:59;;;;;;;10.82;9.73;;;;;;;19.20;65.86;99926.34;10435118;28;20052;-62
2021/09/26 17:37:04;;;;;;;13.98;11.88;;;;;;;19.17;65.92;99925.81;10431782;28;20068;-62
2021/09/26 17:42:06;;;;;;;23.02;17.98;;;;;;;19.12;65.92;99930.72;10432586;28;20060;-63
2021/09/26 17:47:07;;;;;;;24.85;19.35;;;;;;;19.08;65.97;99935.47;10415739;28;20053;-62
2021/09/26 17:52:09;;;;;;;19.80;14.63;;;;;;;19.05;66.07;99946.38;10433680;28;20055;-64
2021/09/26 17:57:13;;;;;;;20.45;14.18;;;;;;;19.01;66.12;99938.84;10432091;28;20131;-64
2021/09/26 18:02:16;;;;;;;14.88;10.70;;;;;;;18.99;65.83;99954.03;10434645;28;20053;-64
2021/09/26 18:07:17;;;;;;;13.32;11.43;;;;;;;18.95;66.18;99953.47;10430891;28;20049;-63
2021/09/26 18:12:20;;;;;;;15.60;12.27;;;;;;;18.91;65.84;99951.28;10430889;28;20051;-63
2021/09/26 18:17:22;;;;;;;18.00;12.77;;;;;;;18.85;65.80;99962.47;10427844;28;20412;-63
2021/09/26 18:22:23;;;;;;;17.73;13.48;;;;;;;18.75;66.11;99961.66;10432412;28;20480;-63
2021/09/26 18:27:27;;;;;;;14.48;12.27;;;;;;;18.71;66.20;99968.22;10426214;28;20059;-63
2021/09/26 18:32:29;;;;;;;18.33;11.82;;;;;;;18.69;66.43;99970.16;10429480;28;20135;-63
2021/09/26 18:37:31;;;;;;;12.40;10.15;;;;;;;18.60;66.21;99970.03;10429800;28;20750;-63
2021/09/26 18:42:33;;;;;;;14.38;10.85;;;;;;;18.57;66.54;99980.91;10426073;28;20053;-62
2021/09/26 18:47:35;;;;;;;18.50;14.02;;;;;;;18.48;66.58;99970.31;10407381;28;20461;-62
2021/09/26 18:52:47;;;;;;;15.18;10.93;;;;;;;18.24;66.82;99964.63;10428891;28;20049;-62
2021/09/26 18:57:49;;;;;;;14.27;10.30;;;;;;;18.14;66.91;99969.03;10430762;28;20056;-62
2021/09/26 19:02:52;;;;;;;14.63;10.80;;;;;;;18.16;67.00;99969.72;10425978;28;20055;-62
2021/09/26 19:07:55;;;;;;;12.40;11.10;;;;;;;18.08;67.60;99961.63;10425895;28;20148;-62
2021/09/26 19:12:59;;;;;;;14.77;12.02;;;;;;;18.09;67.58;99961.53;10424381;28;20041;-63
2021/09/26 19:18:02;;;;;;;13.85;10.23;;;;;;;18.16;67.29;99962.63;10423736;28;20296;-62
2021/09/26 19:23:04;;;;;;;15.07;11.52;;;;;;;18.13;67.65;99975.31;10423055;28;20049;-62
2021/09/26 19:28:07;;;;;;;16.98;11.63;;;;;;;18.18;67.34;99988.97;10425641;28;20056;-63
2021/09/26 19:33:10;;;;;;;18.60;12.63;;;;;;;18.23;67.17;99989.41;10429352;28;20502;-63
2021/09/26 19:38:12;;;;;;;21.02;13.25;;;;;;;18.19;67.10;99991.50;10431309;28;20143;-63
2021/09/26 19:43:16;;;;;;;18.45;14.95;;;;;;;18.16;67.60;99990.88;10431453;28;20131;-63
2021/09/26 19:48:18;;;;;;;14.82;10.25;;;;;;;18.20;67.12;99987.88;10431758;28;20044;-63
2021/09/26 19:53:20;;;;;;;14.45;11.40;;;;;;;18.25;67.03;99998.91;10431082;28;20417;-63
2021/09/26 19:58:23;;;;;;;15.05;10.80;;;;;;;18.25;67.15;99998.06;10429877;28;20059;-63
2021/09/26 20:03:25;;;;;;;16.48;12.35;;;;;;;18.22;67.22;99993.88;10428215;28;20132;-63
2021/09/26 20:08:27;;;;;;;13.40;11.05;;;;;;;18.24;66.76;99997.22;10429160;28;20543;-62
2021/09/26 20:13:29;;;;;;;10.85;9.48;;;;;;;18.26;66.82;99995.25;10429288;28;20052;-63
2021/09/26 20:18:31;;;;;;;15.32;11.32;;;;;;;18.28;66.33;99993.31;10429488;28;20049;-63
2021/09/26 20:23:35;;;;;;;14.00;11.25;;;;;;;18.29;66.48;99996.78;10430087;28;20187;-63
2021/09/26 20:28:37;;;;;;;17.83;12.57;;;;;;;18.26;66.79;99997.91;10430064;28;20092;-63
2021/09/26 20:33:40;;;;;;;11.95;9.75;;;;;;;18.24;66.30;99991.09;10428963;28;20112;-63
2021/09/26 20:38:41;;;;;;;14.00;11.73;;;;;;;18.18;66.50;99986.31;10428071;28;20335;-63
2021/09/26 20:43:43;;;;;;;16.10;11.00;;;;;;;18.06;66.67;99987.41;10428490;28;20049;-63
2021/09/26 20:48:45;;;;;;;19.88;13.77;;;;;;;17.96;66.93;99992.69;10428989;28;20064;-63
2021/09/26 20:53:47;;;;;;;26.50;15.05;;;;;;;17.74;67.33;99983.19;10427843;28;20493;-63
2021/09/26 20:58:49;;;;;;;14.50;11.43;;;;;;;17.60;67.51;99986.22;10428469;28;20041;-63
2021/09/26 21:03:51;;;;;;;13.85;10.75;;;;;;;17.58;67.38;99989.97;10428270;28;20072;-63
2021/09/26 21:08:52;;;;;;;18.63;13.10;;;;;;;17.53;67.58;99995.66;10428021;28;20057;-63
2021/09/26 21:13:54;;;;;;;358.27;25.83;;;;;;;17.41;67.72;99999.38;10424846;28;20057;-63
2021/09/26 21:18:55;;;;;;;14.13;11.10;;;;;;;17.28;67.77;99993.41;10427578;28;20131;-63
2021/09/26 21:23:57;;;;;;;46.75;17.13;;;;;;;17.30;68.18;99998.59;10427753;28;20587;-63
2021/09/26 21:28:59;;;;;;;15.02;11.82;;;;;;;17.26;67.83;99994.53;10427003;28;20136;-63
2021/09/26 21:34:01;;;;;;;505.63;26.75;;;;;;;17.27;67.89;99996.19;10425902;28;20067;-63
2021/09/26 21:39:04;;;;;;;272.92;15.25;;;;;;;17.18;68.20;99991.72;10426900;28;20047;-63
2021/09/26 21:44:06;;;;;;;122.85;17.00;;;;;;;17.12;68.00;99989.59;10425914;28;20059;-63
2021/09/26 21:49:07;;;;;;;14.55;10.52;;;;;;;17.09;68.04;99990.69;10427856;28;20460;-63
2021/09/26 21:54:09;;;;;;;15.18;11.40;;;;;;;17.04;67.56;99985.81;10423920;28;20064;-63
2021/09/26 21:59:11;;;;;;;349.40;21.90;;;;;;;17.00;67.83;99986.19;10424705;28;20505;-63
2021/09/26 22:04:14;;;;;;;695.50;28.58;;;;;;;16.96;67.97;99984.78;10426328;28;20053;-63
2021/09/26 22:09:16;;;;;;;172.57;14.18;;;;;;;16.91;67.96;99984.34;10425931;28;20661;-63
2021/09/26 22:14:19;;;;;;;240.15;15.98;;;;;;;16.87;67.71;99988.22;10425565;28;20485;-63
2021/09/26 22:19:20;;;;;;;195.93;16.20;;;;;;;16.82;67.94;99995.69;10426135;28;20476;-63
2021/09/26 22:24:22;;;;;;;154.40;18.25;;;;;;;16.77;68.36;100006.63;10425694;28;20055;-64
2021/09/26 22:29:25;;;;;;;174.32;19.25;;;;;;;16.75;68.20;100003.28;10424604;28;20566;-64
2021/09/26 22:34:26;;;;;;;239.00;21.52;;;;;;;16.69;68.11;100011.72;10425043;28;20509;-62
2021/09/26 22:39:28;;;;;;;286.23;20.00;;;;;;;16.65;68.06;100010.28;10425489;28;20497;-63
2021/09/26 22:44:30;;;;;;;465.00;23.83;;;;;;;16.62;68.21;99999.16;10425320;28;20061;-63
2021/09/26 22:49:32;;;;;;;328.92;17.63;;;;;;;16.58;68.02;99987.19;10424643;28;20493;-63
2021/09/26 22:54:34;;;;;;;363.85;19.38;;;;;;;16.54;67.92;99993.69;10425166;28;20045;-63
2021/09/26 22:59:35;;;;;;;267.98;17.77;;;;;;;16.46;68.11;99991.69;10424045;28;20052;-63
2021/09/26 23:04:37;;;;;;;50.85;11.80;;;;;;;16.36;67.67;99988.09;10429581;28;20065;-63
2021/09/26 23:09:39;;;;;;;418.77;19.67;;;;;;;16.28;68.14;99985.25;10432985;28;20060;-63
2021/09/26 23:14:40;;;;;;;103.25;14.18;;;;;;;16.20;68.07;99996.41;10432177;28;20363;-63